DRRB weather

Birni-N'Konni Airport
Birni-N'Konni, Tahoua Region, Niger

Public forecast

Using degrees Celsius for public forecast. Weather courtesy of forecast.io.

METAR (pilot weather report)

Report is more than 6 hours old.

Retrieved 2019/01/29 10:00 UTC (18 days ago):

DRRB 291000Z 14008KT CAVOK 29/M03 Q////

TAF (pilot weather forecast)

Forecast is more than 12 hours old.

Closest forecast is Sadiq Abubakar III International Airport, 53.2 nm (98.5 km) S. Retrieved 2019/02/12 12:21 UTC (4 days ago):

TAF DNSO 120930Z 1212/1318 00806KT 0400 DU VV/// BECMG 1219/1221 1000 NSC